sensor_id;sensor_type;location;lat;lon;timestamp;P1;durP1;ratioP1;P2;durP2;ratioP2
27375;SDS011;14844;51.302;6.354;2022-07-23T00:01:16;17.33;;;11.90;;
27375;SDS011;14844;51.302;6.354;2022-07-23T00:03:41;15.63;;;12.30;;
27375;SDS011;14844;51.302;6.354;2022-07-23T00:06:07;17.50;;;12.15;;
27375;SDS011;14844;51.302;6.354;2022-07-23T00:08:33;20.02;;;12.57;;
27375;SDS011;14844;51.302;6.354;2022-07-23T00:10:58;16.98;;;12.82;;
27375;SDS011;14844;51.302;6.354;2022-07-23T00:13:25;20.63;;;12.38;;
27375;SDS011;14844;51.302;6.354;2022-07-23T00:15:51;19.50;;;13.68;;
27375;SDS011;14844;51.302;6.354;2022-07-23T00:18:16;20.10;;;12.25;;
27375;SDS011;14844;51.302;6.354;2022-07-23T00:21:00;22.27;;;12.88;;
27375;SDS011;14844;51.302;6.354;2022-07-23T02:00:55;26.13;;;16.83;;
27375;SDS011;14844;51.302;6.354;2022-07-23T02:03:25;28.58;;;17.00;;
27375;SDS011;14844;51.302;6.354;2022-07-23T02:05:53;23.10;;;16.27;;
27375;SDS011;14844;51.302;6.354;2022-07-23T02:08:22;25.70;;;17.27;;
27375;SDS011;14844;51.302;6.354;2022-07-23T02:10:48;23.88;;;16.35;;
27375;SDS011;14844;51.302;6.354;2022-07-23T02:13:18;22.05;;;16.17;;
27375;SDS011;14844;51.302;6.354;2022-07-23T02:15:47;23.27;;;17.13;;
27375;SDS011;14844;51.302;6.354;2022-07-23T02:18:13;25.23;;;16.88;;
27375;SDS011;14844;51.302;6.354;2022-07-23T02:20:40;22.70;;;16.20;;
27375;SDS011;14844;51.302;6.354;2022-07-23T02:23:06;23.27;;;16.02;;
27375;SDS011;14844;51.302;6.354;2022-07-23T02:25:32;23.17;;;15.52;;
27375;SDS011;14844;51.302;6.354;2022-07-23T02:28:00;22.48;;;15.98;;
27375;SDS011;14844;51.302;6.354;2022-07-23T02:30:26;21.13;;;16.10;;
27375;SDS011;14844;51.302;6.354;2022-07-23T02:32:52;21.27;;;16.20;;
27375;SDS011;14844;51.302;6.354;2022-07-23T02:35:18;25.70;;;17.48;;
27375;SDS011;14844;51.302;6.354;2022-07-23T02:37:43;19.63;;;15.98;;
27375;SDS011;14844;51.302;6.354;2022-07-23T02:40:09;24.90;;;16.10;;
27375;SDS011;14844;51.302;6.354;2022-07-23T02:42:35;23.10;;;16.55;;
27375;SDS011;14844;51.302;6.354;2022-07-23T02:45:01;24.85;;;16.70;;
27375;SDS011;14844;51.302;6.354;2022-07-23T02:47:27;26.45;;;16.42;;
27375;SDS011;14844;51.302;6.354;2022-07-23T02:49:52;26.50;;;16.73;;
27375;SDS011;14844;51.302;6.354;2022-07-23T02:52:18;23.42;;;17.00;;
27375;SDS011;14844;51.302;6.354;2022-07-23T02:54:44;22.63;;;16.17;;
27375;SDS011;14844;51.302;6.354;2022-07-23T02:57:09;26.38;;;17.65;;
27375;SDS011;14844;51.302;6.354;2022-07-23T02:59:35;25.95;;;16.95;;
27375;SDS011;14844;51.302;6.354;2022-07-23T03:02:01;25.85;;;17.38;;
27375;SDS011;14844;51.302;6.354;2022-07-23T03:04:26;27.17;;;16.60;;
27375;SDS011;14844;51.302;6.354;2022-07-23T03:06:52;25.73;;;16.90;;
27375;SDS011;14844;51.302;6.354;2022-07-23T03:09:17;30.58;;;18.20;;
27375;SDS011;14844;51.302;6.354;2022-07-23T03:11:43;40.63;;;21.35;;
27375;SDS011;14844;51.302;6.354;2022-07-23T03:14:08;35.40;;;18.65;;
27375;SDS011;14844;51.302;6.354;2022-07-23T03:16:34;30.58;;;17.63;;
27375;SDS011;14844;51.302;6.354;2022-07-23T03:18:59;33.75;;;18.23;;
27375;SDS011;14844;51.302;6.354;2022-07-23T03:21:25;26.20;;;17.38;;
27375;SDS011;14844;51.302;6.354;2022-07-23T03:23:51;26.13;;;17.58;;
27375;SDS011;14844;51.302;6.354;2022-07-23T03:26:17;24.67;;;17.77;;
27375;SDS011;14844;51.302;6.354;2022-07-23T03:28:42;26.70;;;18.60;;
27375;SDS011;14844;51.302;6.354;2022-07-23T03:31:08;26.33;;;17.85;;
27375;SDS011;14844;51.302;6.354;2022-07-23T03:33:33;27.67;;;18.58;;
27375;SDS011;14844;51.302;6.354;2022-07-23T03:35:59;29.67;;;19.55;;
27375;SDS011;14844;51.302;6.354;2022-07-23T03:38:25;31.30;;;19.65;;
27375;SDS011;14844;51.302;6.354;2022-07-23T03:40:50;27.48;;;18.73;;
27375;SDS011;14844;51.302;6.354;2022-07-23T03:43:16;41.50;;;21.23;;
27375;SDS011;14844;51.302;6.354;2022-07-23T03:45:42;35.75;;;19.10;;
27375;SDS011;14844;51.302;6.354;2022-07-23T03:48:07;25.15;;;17.88;;
27375;SDS011;14844;51.302;6.354;2022-07-23T03:50:33;25.42;;;18.25;;
27375;SDS011;14844;51.302;6.354;2022-07-23T03:52:59;25.55;;;18.17;;
27375;SDS011;14844;51.302;6.354;2022-07-23T03:55:25;34.78;;;20.13;;
27375;SDS011;14844;51.302;6.354;2022-07-23T03:57:50;30.90;;;20.38;;
27375;SDS011;14844;51.302;6.354;2022-07-23T04:00:16;35.97;;;20.55;;
27375;SDS011;14844;51.302;6.354;2022-07-23T04:02:41;28.95;;;18.27;;
27375;SDS011;14844;51.302;6.354;2022-07-23T04:05:07;25.83;;;19.17;;
27375;SDS011;14844;51.302;6.354;2022-07-23T04:07:33;31.77;;;19.73;;
27375;SDS011;14844;51.302;6.354;2022-07-23T04:09:58;30.20;;;20.85;;
27375;SDS011;14844;51.302;6.354;2022-07-23T04:12:24;38.65;;;21.25;;
27375;SDS011;14844;51.302;6.354;2022-07-23T04:14:50;31.40;;;20.80;;
27375;SDS011;14844;51.302;6.354;2022-07-23T04:17:16;32.75;;;21.77;;
27375;SDS011;14844;51.302;6.354;2022-07-23T04:19:41;33.72;;;21.70;;
27375;SDS011;14844;51.302;6.354;2022-07-23T04:22:09;34.40;;;22.92;;
27375;SDS011;14844;51.302;6.354;2022-07-23T04:24:35;30.70;;;22.33;;
27375;SDS011;14844;51.302;6.354;2022-07-23T04:27:01;32.05;;;21.40;;
27375;SDS011;14844;51.302;6.354;2022-07-23T04:29:27;30.45;;;21.08;;
27375;SDS011;14844;51.302;6.354;2022-07-23T04:31:52;36.72;;;21.48;;
27375;SDS011;14844;51.302;6.354;2022-07-23T04:34:18;32.80;;;21.50;;
27375;SDS011;14844;51.302;6.354;2022-07-23T04:36:44;30.35;;;21.83;;
27375;SDS011;14844;51.302;6.354;2022-07-23T04:39:09;34.88;;;21.88;;
27375;SDS011;14844;51.302;6.354;2022-07-23T04:41:35;32.58;;;21.42;;
27375;SDS011;14844;51.302;6.354;2022-07-23T04:44:01;34.47;;;20.00;;
27375;SDS011;14844;51.302;6.354;2022-07-23T04:46:27;32.78;;;20.80;;
27375;SDS011;14844;51.302;6.354;2022-07-23T04:48:53;30.73;;;20.73;;
27375;SDS011;14844;51.302;6.354;2022-07-23T04:51:19;30.67;;;20.42;;
27375;SDS011;14844;51.302;6.354;2022-07-23T04:53:44;29.95;;;20.33;;
27375;SDS011;14844;51.302;6.354;2022-07-23T04:56:10;35.70;;;20.15;;
27375;SDS011;14844;51.302;6.354;2022-07-23T04:58:36;34.85;;;20.27;;
27375;SDS011;14844;51.302;6.354;2022-07-23T05:01:01;30.33;;;19.45;;
27375;SDS011;14844;51.302;6.354;2022-07-23T05:03:27;28.85;;;19.70;;
27375;SDS011;14844;51.302;6.354;2022-07-23T05:05:52;33.17;;;18.92;;
27375;SDS011;14844;51.302;6.354;2022-07-23T05:08:18;25.88;;;19.63;;
27375;SDS011;14844;51.302;6.354;2022-07-23T05:10:44;31.90;;;20.42;;
27375;SDS011;14844;51.302;6.354;2022-07-23T05:13:09;26.48;;;18.75;;
27375;SDS011;14844;51.302;6.354;2022-07-23T05:15:35;26.73;;;18.50;;
27375;SDS011;14844;51.302;6.354;2022-07-23T05:18:01;24.30;;;18.45;;
27375;SDS011;14844;51.302;6.354;2022-07-23T06:14:51;22.63;;;15.35;;
27375;SDS011;14844;51.302;6.354;2022-07-23T06:17:17;19.60;;;14.38;;
27375;SDS011;14844;51.302;6.354;2022-07-23T06:19:43;18.85;;;13.75;;
27375;SDS011;14844;51.302;6.354;2022-07-23T06:22:09;20.00;;;14.10;;
27375;SDS011;14844;51.302;6.354;2022-07-23T06:24:34;22.00;;;14.25;;
27375;SDS011;14844;51.302;6.354;2022-07-23T06:27:00;17.27;;;12.90;;
27375;SDS011;14844;51.302;6.354;2022-07-23T06:29:26;22.45;;;14.00;;
27375;SDS011;14844;51.302;6.354;2022-07-23T06:31:52;20.33;;;14.20;;
27375;SDS011;14844;51.302;6.354;2022-07-23T06:34:17;20.08;;;13.65;;
27375;SDS011;14844;51.302;6.354;2022-07-23T06:36:43;20.02;;;13.50;;
27375;SDS011;14844;51.302;6.354;2022-07-23T06:39:08;16.77;;;12.30;;
27375;SDS011;14844;51.302;6.354;2022-07-23T06:41:34;17.73;;;12.43;;
27375;SDS011;14844;51.302;6.354;2022-07-23T06:44:00;16.92;;;11.70;;
27375;SDS011;14844;51.302;6.354;2022-07-23T06:46:25;20.75;;;13.07;;
27375;SDS011;14844;51.302;6.354;2022-07-23T06:48:51;19.58;;;12.20;;
27375;SDS011;14844;51.302;6.354;2022-07-23T06:51:16;20.17;;;13.27;;
27375;SDS011;14844;51.302;6.354;2022-07-23T06:53:42;16.17;;;12.55;;
27375;SDS011;14844;51.302;6.354;2022-07-23T06:56:07;18.25;;;12.98;;
27375;SDS011;14844;51.302;6.354;2022-07-23T06:58:33;20.00;;;12.23;;
27375;SDS011;14844;51.302;6.354;2022-07-23T07:00:59;16.38;;;11.90;;
27375;SDS011;14844;51.302;6.354;2022-07-23T07:03:24;20.40;;;11.52;;
27375;SDS011;14844;51.302;6.354;2022-07-23T07:05:50;14.88;;;11.13;;
27375;SDS011;14844;51.302;6.354;2022-07-23T07:08:15;19.02;;;10.93;;
27375;SDS011;14844;51.302;6.354;2022-07-23T07:10:41;19.95;;;12.15;;
27375;SDS011;14844;51.302;6.354;2022-07-23T07:13:07;17.77;;;9.77;;
27375;SDS011;14844;51.302;6.354;2022-07-23T07:15:32;14.73;;;10.35;;
27375;SDS011;14844;51.302;6.354;2022-07-23T07:17:58;15.30;;;9.48;;
27375;SDS011;14844;51.302;6.354;2022-07-23T07:20:23;16.02;;;9.27;;
27375;SDS011;14844;51.302;6.354;2022-07-23T07:22:49;17.33;;;9.77;;
27375;SDS011;14844;51.302;6.354;2022-07-23T07:25:15;13.50;;;9.10;;
27375;SDS011;14844;51.302;6.354;2022-07-23T07:27:40;15.52;;;8.80;;
27375;SDS011;14844;51.302;6.354;2022-07-23T07:30:08;13.02;;;8.63;;
27375;SDS011;14844;51.302;6.354;2022-07-23T07:32:35;13.80;;;8.65;;
27375;SDS011;14844;51.302;6.354;2022-07-23T07:35:02;13.27;;;8.75;;
27375;SDS011;14844;51.302;6.354;2022-07-23T07:37:29;13.40;;;8.90;;
27375;SDS011;14844;51.302;6.354;2022-07-23T07:39:54;12.88;;;8.43;;
27375;SDS011;14844;51.302;6.354;2022-07-23T07:42:20;14.35;;;8.40;;
27375;SDS011;14844;51.302;6.354;2022-07-23T07:44:46;10.70;;;7.47;;
27375;SDS011;14844;51.302;6.354;2022-07-23T07:47:11;11.77;;;7.82;;
27375;SDS011;14844;51.302;6.354;2022-07-23T07:49:38;10.13;;;6.68;;
27375;SDS011;14844;51.302;6.354;2022-07-23T07:52:04;12.73;;;7.60;;
27375;SDS011;14844;51.302;6.354;2022-07-23T07:54:31;9.98;;;6.35;;
27375;SDS011;14844;51.302;6.354;2022-07-23T07:56:57;11.15;;;6.10;;
27375;SDS011;14844;51.302;6.354;2022-07-23T07:59:22;9.73;;;6.13;;
27375;SDS011;14844;51.302;6.354;2022-07-23T08:01:48;10.40;;;6.10;;
27375;SDS011;14844;51.302;6.354;2022-07-23T08:04:14;13.05;;;6.03;;
27375;SDS011;14844;51.302;6.354;2022-07-23T08:06:39;7.97;;;5.55;;
27375;SDS011;14844;51.302;6.354;2022-07-23T08:09:05;8.75;;;4.90;;
27375;SDS011;14844;51.302;6.354;2022-07-23T08:11:31;8.10;;;5.45;;
27375;SDS011;14844;51.302;6.354;2022-07-23T08:13:56;8.88;;;5.53;;
27375;SDS011;14844;51.302;6.354;2022-07-23T08:16:42;8.85;;;5.63;;
27375;SDS011;14844;51.302;6.354;2022-07-23T08:19:08;12.07;;;5.25;;
27375;SDS011;14844;51.302;6.354;2022-07-23T08:21:39;9.95;;;4.88;;
27375;SDS011;14844;51.302;6.354;2022-07-23T08:24:04;13.03;;;4.93;;
27375;SDS011;14844;51.302;6.354;2022-07-23T08:26:30;9.55;;;5.10;;
27375;SDS011;14844;51.302;6.354;2022-07-23T08:28:56;11.63;;;5.10;;
27375;SDS011;14844;51.302;6.354;2022-07-23T08:31:22;10.40;;;4.95;;
27375;SDS011;14844;51.302;6.354;2022-07-23T08:33:47;6.30;;;4.03;;
27375;SDS011;14844;51.302;6.354;2022-07-23T08:36:13;10.02;;;4.65;;
27375;SDS011;14844;51.302;6.354;2022-07-23T08:38:39;8.68;;;4.63;;
27375;SDS011;14844;51.302;6.354;2022-07-23T08:41:04;8.60;;;4.60;;
27375;SDS011;14844;51.302;6.354;2022-07-23T08:43:33;7.60;;;4.25;;
27375;SDS011;14844;51.302;6.354;2022-07-23T08:46:01;9.07;;;4.70;;
27375;SDS011;14844;51.302;6.354;2022-07-23T08:48:29;11.00;;;4.80;;
27375;SDS011;14844;51.302;6.354;2022-07-23T08:50:57;9.63;;;5.03;;
27375;SDS011;14844;51.302;6.354;2022-07-23T08:53:26;7.53;;;4.60;;
27375;SDS011;14844;51.302;6.354;2022-07-23T08:55:55;8.45;;;4.78;;
27375;SDS011;14844;51.302;6.354;2022-07-23T08:58:22;7.05;;;4.40;;
27375;SDS011;14844;51.302;6.354;2022-07-23T09:00:49;8.93;;;5.45;;
27375;SDS011;14844;51.302;6.354;2022-07-23T09:03:15;9.65;;;5.00;;
27375;SDS011;14844;51.302;6.354;2022-07-23T09:05:49;7.80;;;4.38;;
27375;SDS011;14844;51.302;6.354;2022-07-23T09:08:19;11.68;;;3.83;;
27375;SDS011;14844;51.302;6.354;2022-07-23T09:10:48;6.65;;;3.88;;
27375;SDS011;14844;51.302;6.354;2022-07-23T09:13:28;6.82;;;3.60;;
27375;SDS011;14844;51.302;6.354;2022-07-23T09:16:00;9.77;;;4.30;;
27375;SDS011;14844;51.302;6.354;2022-07-23T09:18:34;8.00;;;4.40;;
27375;SDS011;14844;51.302;6.354;2022-07-23T09:23:36;8.63;;;3.83;;
27375;SDS011;14844;51.302;6.354;2022-07-23T09:26:07;7.30;;;3.80;;
27375;SDS011;14844;51.302;6.354;2022-07-23T09:28:56;4.85;;;3.10;;
27375;SDS011;14844;51.302;6.354;2022-07-23T09:31:30;6.88;;;3.53;;
27375;SDS011;14844;51.302;6.354;2022-07-23T09:34:11;7.32;;;3.47;;
27375;SDS011;14844;51.302;6.354;2022-07-23T09:39:05;5.95;;;3.25;;
27375;SDS011;14844;51.302;6.354;2022-07-23T09:41:37;8.57;;;3.80;;
27375;SDS011;14844;51.302;6.354;2022-07-23T09:44:08;6.72;;;2.88;;
27375;SDS011;14844;51.302;6.354;2022-07-23T09:46:38;5.10;;;3.30;;
27375;SDS011;14844;51.302;6.354;2022-07-23T09:49:20;5.97;;;3.72;;
27375;SDS011;14844;51.302;6.354;2022-07-23T09:51:55;5.53;;;3.47;;
27375;SDS011;14844;51.302;6.354;2022-07-23T09:56:49;4.97;;;3.00;;
27375;SDS011;14844;51.302;6.354;2022-07-23T09:59:16;5.07;;;3.10;;
27375;SDS011;14844;51.302;6.354;2022-07-23T10:01:45;9.70;;;2.85;;
27375;SDS011;14844;51.302;6.354;2022-07-23T10:04:11;4.75;;;2.53;;
27375;SDS011;14844;51.302;6.354;2022-07-23T10:06:40;8.45;;;3.05;;
27375;SDS011;14844;51.302;6.354;2022-07-23T10:09:10;6.70;;;3.00;;
27375;SDS011;14844;51.302;6.354;2022-07-23T10:11:41;3.95;;;2.55;;
27375;SDS011;14844;51.302;6.354;2022-07-23T10:14:07;5.28;;;2.85;;
27375;SDS011;14844;51.302;6.354;2022-07-23T10:16:33;6.75;;;2.65;;
27375;SDS011;14844;51.302;6.354;2022-07-23T10:18:59;8.18;;;2.65;;
27375;SDS011;14844;51.302;6.354;2022-07-23T10:24:18;4.28;;;2.40;;
27375;SDS011;14844;51.302;6.354;2022-07-23T10:26:55;4.25;;;1.85;;
27375;SDS011;14844;51.302;6.354;2022-07-23T10:29:39;3.42;;;2.10;;
27375;SDS011;14844;51.302;6.354;2022-07-23T10:37:50;4.20;;;2.38;;
27375;SDS011;14844;51.302;6.354;2022-07-23T10:40:22;5.18;;;2.03;;
27375;SDS011;14844;51.302;6.354;2022-07-23T10:42:49;5.03;;;2.08;;
27375;SDS011;14844;51.302;6.354;2022-07-23T10:47:56;3.45;;;1.70;;
27375;SDS011;14844;51.302;6.354;2022-07-23T10:50:36;4.93;;;2.40;;
27375;SDS011;14844;51.302;6.354;2022-07-23T10:57:57;5.30;;;2.30;;
27375;SDS011;14844;51.302;6.354;2022-07-23T11:00:24;4.15;;;2.15;;
27375;SDS011;14844;51.302;6.354;2022-07-23T11:02:52;3.72;;;2.00;;
27375;SDS011;14844;51.302;6.354;2022-07-23T11:05:22;3.67;;;1.45;;
27375;SDS011;14844;51.302;6.354;2022-07-23T11:23:57;3.90;;;1.88;;
27375;SDS011;14844;51.302;6.354;2022-07-23T11:31:58;4.50;;;1.50;;
27375;SDS011;14844;51.302;6.354;2022-07-23T11:36:50;3.25;;;1.85;;
27375;SDS011;14844;51.302;6.354;2022-07-23T11:39:16;5.13;;;1.80;;
27375;SDS011;14844;51.302;6.354;2022-07-23T11:41:46;2.95;;;1.63;;
27375;SDS011;14844;51.302;6.354;2022-07-23T11:47:11;3.85;;;1.52;;
27375;SDS011;14844;51.302;6.354;2022-07-23T11:49:38;4.32;;;1.70;;
27375;SDS011;14844;51.302;6.354;2022-07-23T11:52:13;5.55;;;1.70;;
27375;SDS011;14844;51.302;6.354;2022-07-23T11:54:50;3.75;;;1.73;;
27375;SDS011;14844;51.302;6.354;2022-07-23T11:57:18;2.75;;;1.67;;
27375;SDS011;14844;51.302;6.354;2022-07-23T11:59:49;5.72;;;1.98;;
27375;SDS011;14844;51.302;6.354;2022-07-23T12:02:19;4.32;;;1.90;;
27375;SDS011;14844;51.302;6.354;2022-07-23T12:04:46;6.10;;;1.80;;
27375;SDS011;14844;51.302;6.354;2022-07-23T12:10:00;5.90;;;2.13;;
27375;SDS011;14844;51.302;6.354;2022-07-23T12:12:34;9.55;;;1.88;;
27375;SDS011;14844;51.302;6.354;2022-07-23T12:15:02;3.08;;;1.70;;
27375;SDS011;14844;51.302;6.354;2022-07-23T12:17:29;4.15;;;1.80;;
27375;SDS011;14844;51.302;6.354;2022-07-23T12:19:57;4.68;;;1.73;;
27375;SDS011;14844;51.302;6.354;2022-07-23T12:22:24;5.28;;;1.80;;
27375;SDS011;14844;51.302;6.354;2022-07-23T12:25:02;5.18;;;1.50;;
27375;SDS011;14844;51.302;6.354;2022-07-23T12:27:30;5.03;;;1.70;;
27375;SDS011;14844;51.302;6.354;2022-07-23T12:29:56;3.13;;;1.58;;
27375;SDS011;14844;51.302;6.354;2022-07-23T12:32:28;7.43;;;1.83;;
27375;SDS011;14844;51.302;6.354;2022-07-23T12:35:07;5.72;;;1.65;;
27375;SDS011;14844;51.302;6.354;2022-07-23T12:37:36;3.50;;;1.88;;
27375;SDS011;14844;51.302;6.354;2022-07-23T12:40:19;4.13;;;1.55;;
27375;SDS011;14844;51.302;6.354;2022-07-23T12:42:57;4.88;;;1.85;;
27375;SDS011;14844;51.302;6.354;2022-07-23T12:48:27;2.97;;;1.80;;
27375;SDS011;14844;51.302;6.354;2022-07-23T12:51:08;6.13;;;1.60;;
27375;SDS011;14844;51.302;6.354;2022-07-23T12:53:48;5.63;;;1.98;;
27375;SDS011;14844;51.302;6.354;2022-07-23T12:56:32;5.00;;;1.77;;
27375;SDS011;14844;51.302;6.354;2022-07-23T12:59:06;3.47;;;1.75;;
27375;SDS011;14844;51.302;6.354;2022-07-23T13:01:37;3.70;;;1.60;;
27375;SDS011;14844;51.302;6.354;2022-07-23T13:04:13;4.53;;;1.27;;
27375;SDS011;14844;51.302;6.354;2022-07-23T13:06:42;3.70;;;1.90;;
27375;SDS011;14844;51.302;6.354;2022-07-23T13:09:20;5.10;;;1.70;;
27375;SDS011;14844;51.302;6.354;2022-07-23T13:11:53;5.40;;;1.50;;
27375;SDS011;14844;51.302;6.354;2022-07-23T13:14:20;4.10;;;1.65;;
27375;SDS011;14844;51.302;6.354;2022-07-23T13:16:47;4.18;;;1.30;;
27375;SDS011;14844;51.302;6.354;2022-07-23T13:19:14;3.95;;;1.70;;
27375;SDS011;14844;51.302;6.354;2022-07-23T13:21:42;4.18;;;1.40;;
27375;SDS011;14844;51.302;6.354;2022-07-23T13:24:09;4.50;;;1.73;;
27375;SDS011;14844;51.302;6.354;2022-07-23T13:26:36;3.72;;;1.55;;
27375;SDS011;14844;51.302;6.354;2022-07-23T13:29:03;3.40;;;1.75;;
27375;SDS011;14844;51.302;6.354;2022-07-23T13:31:30;2.97;;;1.35;;
27375;SDS011;14844;51.302;6.354;2022-07-23T13:33:56;2.97;;;2.00;;
27375;SDS011;14844;51.302;6.354;2022-07-23T13:36:22;6.53;;;1.85;;
27375;SDS011;14844;51.302;6.354;2022-07-23T13:38:51;5.35;;;1.85;;
27375;SDS011;14844;51.302;6.354;2022-07-23T13:41:17;5.18;;;1.55;;
27375;SDS011;14844;51.302;6.354;2022-07-23T13:43:46;2.97;;;1.60;;
27375;SDS011;14844;51.302;6.354;2022-07-23T13:46:12;3.75;;;1.83;;
27375;SDS011;14844;51.302;6.354;2022-07-23T13:48:38;2.88;;;1.40;;
27375;SDS011;14844;51.302;6.354;2022-07-23T13:51:04;3.40;;;1.65;;
27375;SDS011;14844;51.302;6.354;2022-07-23T13:53:30;3.60;;;1.60;;
27375;SDS011;14844;51.302;6.354;2022-07-23T13:55:56;4.13;;;1.73;;
27375;SDS011;14844;51.302;6.354;2022-07-23T13:58:22;2.78;;;1.70;;
27375;SDS011;14844;51.302;6.354;2022-07-23T14:00:49;4.78;;;1.52;;
27375;SDS011;14844;51.302;6.354;2022-07-23T14:03:17;2.53;;;1.33;;
27375;SDS011;14844;51.302;6.354;2022-07-23T14:05:50;4.85;;;1.80;;
27375;SDS011;14844;51.302;6.354;2022-07-23T14:08:22;4.07;;;1.88;;
27375;SDS011;14844;51.302;6.354;2022-07-23T14:10:55;5.28;;;2.13;;
27375;SDS011;14844;51.302;6.354;2022-07-23T14:13:22;3.67;;;1.67;;
27375;SDS011;14844;51.302;6.354;2022-07-23T14:15:47;4.93;;;1.50;;
27375;SDS011;14844;51.302;6.354;2022-07-23T14:18:14;4.78;;;1.70;;
27375;SDS011;14844;51.302;6.354;2022-07-23T14:20:43;3.28;;;1.80;;
27375;SDS011;14844;51.302;6.354;2022-07-23T14:23:09;4.35;;;1.77;;
27375;SDS011;14844;51.302;6.354;2022-07-23T14:25:34;4.35;;;1.92;;
27375;SDS011;14844;51.302;6.354;2022-07-23T14:28:01;3.97;;;1.80;;
27375;SDS011;14844;51.302;6.354;2022-07-23T14:30:27;4.78;;;2.08;;
27375;SDS011;14844;51.302;6.354;2022-07-23T14:32:53;3.50;;;1.73;;
27375;SDS011;14844;51.302;6.354;2022-07-23T14:35:19;3.33;;;1.67;;
27375;SDS011;14844;51.302;6.354;2022-07-23T14:37:45;4.03;;;1.73;;
27375;SDS011;14844;51.302;6.354;2022-07-23T14:43:11;4.22;;;1.70;;
27375;SDS011;14844;51.302;6.354;2022-07-23T14:45:56;3.75;;;1.60;;
27375;SDS011;14844;51.302;6.354;2022-07-23T14:48:25;3.60;;;1.50;;
27375;SDS011;14844;51.302;6.354;2022-07-23T14:50:51;6.35;;;2.20;;
27375;SDS011;14844;51.302;6.354;2022-07-23T14:53:29;3.35;;;1.65;;
27375;SDS011;14844;51.302;6.354;2022-07-23T14:55:55;5.75;;;1.63;;
27375;SDS011;14844;51.302;6.354;2022-07-23T14:58:24;2.85;;;1.50;;
27375;SDS011;14844;51.302;6.354;2022-07-23T15:01:13;5.38;;;1.60;;
27375;SDS011;14844;51.302;6.354;2022-07-23T15:03:45;4.55;;;1.50;;
27375;SDS011;14844;51.302;6.354;2022-07-23T15:06:28;3.40;;;1.70;;
27375;SDS011;14844;51.302;6.354;2022-07-23T15:09:02;4.43;;;1.88;;
27375;SDS011;14844;51.302;6.354;2022-07-23T15:11:28;3.83;;;1.90;;
27375;SDS011;14844;51.302;6.354;2022-07-23T15:14:14;5.60;;;1.80;;
27375;SDS011;14844;51.302;6.354;2022-07-23T15:16:40;4.85;;;1.80;;
27375;SDS011;14844;51.302;6.354;2022-07-23T15:19:22;4.70;;;1.70;;
27375;SDS011;14844;51.302;6.354;2022-07-23T15:21:48;5.60;;;1.50;;
27375;SDS011;14844;51.302;6.354;2022-07-23T15:24:17;4.22;;;1.75;;
27375;SDS011;14844;51.302;6.354;2022-07-23T15:26:49;3.88;;;1.55;;
27375;SDS011;14844;51.302;6.354;2022-07-23T15:29:15;3.33;;;1.98;;
27375;SDS011;14844;51.302;6.354;2022-07-23T15:31:40;5.85;;;2.03;;
27375;SDS011;14844;51.302;6.354;2022-07-23T15:34:06;4.10;;;1.70;;
27375;SDS011;14844;51.302;6.354;2022-07-23T15:36:32;4.97;;;1.60;;
27375;SDS011;14844;51.302;6.354;2022-07-23T15:38:58;5.75;;;1.90;;
27375;SDS011;14844;51.302;6.354;2022-07-23T15:41:24;4.40;;;1.83;;
27375;SDS011;14844;51.302;6.354;2022-07-23T15:43:50;6.80;;;2.38;;
27375;SDS011;14844;51.302;6.354;2022-07-23T15:46:19;5.70;;;1.90;;
27375;SDS011;14844;51.302;6.354;2022-07-23T15:48:46;4.75;;;1.90;;
27375;SDS011;14844;51.302;6.354;2022-07-23T15:51:12;5.90;;;2.20;;
27375;SDS011;14844;51.302;6.354;2022-07-23T15:53:39;4.18;;;2.00;;
27375;SDS011;14844;51.302;6.354;2022-07-23T15:56:11;6.47;;;1.90;;
27375;SDS011;14844;51.302;6.354;2022-07-23T15:58:40;4.63;;;2.08;;
27375;SDS011;14844;51.302;6.354;2022-07-23T16:01:06;5.95;;;2.15;;
27375;SDS011;14844;51.302;6.354;2022-07-23T16:06:07;2.78;;;1.90;;
27375;SDS011;14844;51.302;6.354;2022-07-23T16:08:33;3.83;;;1.73;;
27375;SDS011;14844;51.302;6.354;2022-07-23T16:10:59;2.97;;;1.77;;
27375;SDS011;14844;51.302;6.354;2022-07-23T16:13:27;5.22;;;1.75;;
27375;SDS011;14844;51.302;6.354;2022-07-23T16:15:54;3.47;;;1.75;;
27375;SDS011;14844;51.302;6.354;2022-07-23T16:21:35;5.22;;;1.85;;
27375;SDS011;14844;51.302;6.354;2022-07-23T16:24:03;3.08;;;1.77;;
27375;SDS011;14844;51.302;6.354;2022-07-23T16:26:30;3.25;;;1.60;;
27375;SDS011;14844;51.302;6.354;2022-07-23T16:28:56;5.07;;;1.67;;
27375;SDS011;14844;51.302;6.354;2022-07-23T16:31:22;3.20;;;1.80;;
27375;SDS011;14844;51.302;6.354;2022-07-23T16:33:48;3.88;;;1.60;;
27375;SDS011;14844;51.302;6.354;2022-07-23T16:36:14;3.60;;;1.98;;
27375;SDS011;14844;51.302;6.354;2022-07-23T16:38:40;3.65;;;2.20;;
27375;SDS011;14844;51.302;6.354;2022-07-23T16:41:08;5.10;;;2.00;;
27375;SDS011;14844;51.302;6.354;2022-07-23T16:43:40;4.03;;;1.67;;
27375;SDS011;14844;51.302;6.354;2022-07-23T16:46:11;3.97;;;1.83;;
27375;SDS011;14844;51.302;6.354;2022-07-23T16:48:40;3.53;;;1.58;;
27375;SDS011;14844;51.302;6.354;2022-07-23T16:51:06;4.82;;;1.90;;
27375;SDS011;14844;51.302;6.354;2022-07-23T16:53:32;2.92;;;1.70;;
27375;SDS011;14844;51.302;6.354;2022-07-23T16:55:57;4.35;;;1.73;;
27375;SDS011;14844;51.302;6.354;2022-07-23T16:58:23;4.82;;;1.92;;
27375;SDS011;14844;51.302;6.354;2022-07-23T17:00:48;6.03;;;1.70;;
27375;SDS011;14844;51.302;6.354;2022-07-23T17:03:14;6.20;;;1.70;;
27375;SDS011;14844;51.302;6.354;2022-07-23T17:05:40;3.55;;;1.80;;
27375;SDS011;14844;51.302;6.354;2022-07-23T17:08:05;3.38;;;1.70;;
27375;SDS011;14844;51.302;6.354;2022-07-23T17:10:32;2.83;;;1.70;;
27375;SDS011;14844;51.302;6.354;2022-07-23T17:12:57;3.47;;;1.70;;
27375;SDS011;14844;51.302;6.354;2022-07-23T17:15:24;3.10;;;1.60;;
27375;SDS011;14844;51.302;6.354;2022-07-23T17:17:49;3.10;;;1.58;;
27375;SDS011;14844;51.302;6.354;2022-07-23T17:20:15;3.53;;;1.50;;
27375;SDS011;14844;51.302;6.354;2022-07-23T17:22:41;3.17;;;1.63;;
27375;SDS011;14844;51.302;6.354;2022-07-23T17:25:11;3.58;;;1.55;;
27375;SDS011;14844;51.302;6.354;2022-07-23T17:27:45;4.72;;;1.67;;
27375;SDS011;14844;51.302;6.354;2022-07-23T17:30:14;6.53;;;1.88;;
27375;SDS011;14844;51.302;6.354;2022-07-23T17:32:51;2.53;;;1.30;;
27375;SDS011;14844;51.302;6.354;2022-07-23T17:35:22;4.70;;;2.00;;
27375;SDS011;14844;51.302;6.354;2022-07-23T17:37:54;3.58;;;1.70;;
27375;SDS011;14844;51.302;6.354;2022-07-23T17:43:26;3.75;;;1.80;;
27375;SDS011;14844;51.302;6.354;2022-07-23T17:53:20;2.55;;;1.70;;
27375;SDS011;14844;51.302;6.354;2022-07-23T17:56:32;2.42;;;1.63;;
27375;SDS011;14844;51.302;6.354;2022-07-23T17:59:06;3.67;;;1.60;;
27375;SDS011;14844;51.302;6.354;2022-07-23T18:04:55;4.18;;;1.90;;
27375;SDS011;14844;51.302;6.354;2022-07-23T18:07:54;2.50;;;1.80;;
27375;SDS011;14844;51.302;6.354;2022-07-23T18:14:09;3.53;;;1.75;;
27375;SDS011;14844;51.302;6.354;2022-07-23T18:17:03;3.10;;;2.05;;
27375;SDS011;14844;51.302;6.354;2022-07-23T18:19:39;4.57;;;2.20;;
27375;SDS011;14844;51.302;6.354;2022-07-23T18:22:13;5.78;;;1.98;;
27375;SDS011;14844;51.302;6.354;2022-07-23T18:24:46;6.93;;;2.60;;
27375;SDS011;14844;51.302;6.354;2022-07-23T18:27:27;3.30;;;1.83;;
27375;SDS011;14844;51.302;6.354;2022-07-23T18:30:20;2.92;;;1.90;;
27375;SDS011;14844;51.302;6.354;2022-07-23T18:32:45;4.95;;;1.90;;
27375;SDS011;14844;51.302;6.354;2022-07-23T18:35:22;5.43;;;2.05;;
27375;SDS011;14844;51.302;6.354;2022-07-23T18:37:49;6.60;;;2.00;;
27375;SDS011;14844;51.302;6.354;2022-07-23T18:40:20;3.60;;;2.00;;